sensor_id;sensor_type;location;lat;lon;timestamp;temperature;humidity
12060;DHT22;6091;51.432;6.880;2024-01-11T00:01:01;20.10;29.80
12060;DHT22;6091;51.432;6.880;2024-01-11T00:03:28;20.00;29.80
12060;DHT22;6091;51.432;6.880;2024-01-11T00:05:55;20.10;29.90
12060;DHT22;6091;51.432;6.880;2024-01-11T00:08:22;20.00;29.80
12060;DHT22;6091;51.432;6.880;2024-01-11T00:10:49;20.00;29.90
12060;DHT22;6091;51.432;6.880;2024-01-11T00:13:17;20.00;29.90
12060;DHT22;6091;51.432;6.880;2024-01-11T00:15:44;20.00;29.90
12060;DHT22;6091;51.432;6.880;2024-01-11T00:18:11;20.00;29.90
12060;DHT22;6091;51.432;6.880;2024-01-11T00:20:39;20.00;29.90
12060;DHT22;6091;51.432;6.880;2024-01-11T00:23:06;19.90;29.90
12060;DHT22;6091;51.432;6.880;2024-01-11T00:25:33;19.90;30.00
12060;DHT22;6091;51.432;6.880;2024-01-11T00:28:01;19.90;30.00
12060;DHT22;6091;51.432;6.880;2024-01-11T00:30:29;19.90;30.00
12060;DHT22;6091;51.432;6.880;2024-01-11T00:32:56;19.90;30.00
12060;DHT22;6091;51.432;6.880;2024-01-11T00:35:24;19.90;30.00
12060;DHT22;6091;51.432;6.880;2024-01-11T00:37:51;19.90;30.00
12060;DHT22;6091;51.432;6.880;2024-01-11T00:40:18;19.90;30.00
12060;DHT22;6091;51.432;6.880;2024-01-11T00:42:45;19.90;30.00
12060;DHT22;6091;51.432;6.880;2024-01-11T00:45:12;19.90;30.00
12060;DHT22;6091;51.432;6.880;2024-01-11T00:47:39;19.90;30.00
12060;DHT22;6091;51.432;6.880;2024-01-11T00:50:07;19.80;30.00
12060;DHT22;6091;51.432;6.880;2024-01-11T00:52:36;19.80;30.00
12060;DHT22;6091;51.432;6.880;2024-01-11T00:55:03;19.80;30.00
12060;DHT22;6091;51.432;6.880;2024-01-11T00:57:31;19.80;30.00
12060;DHT22;6091;51.432;6.880;2024-01-11T00:59:59;19.80;30.00
12060;DHT22;6091;51.432;6.880;2024-01-11T01:02:26;19.80;30.00
12060;DHT22;6091;51.432;6.880;2024-01-11T01:04:53;19.70;30.00
12060;DHT22;6091;51.432;6.880;2024-01-11T01:07:21;19.70;30.00
12060;DHT22;6091;51.432;6.880;2024-01-11T01:09:48;19.70;30.00
12060;DHT22;6091;51.432;6.880;2024-01-11T01:12:15;19.70;30.10
12060;DHT22;6091;51.432;6.880;2024-01-11T01:14:45;19.70;30.10
12060;DHT22;6091;51.432;6.880;2024-01-11T01:17:12;19.70;30.10
12060;DHT22;6091;51.432;6.880;2024-01-11T01:19:44;19.70;30.10
12060;DHT22;6091;51.432;6.880;2024-01-11T01:22:11;19.70;30.10
12060;DHT22;6091;51.432;6.880;2024-01-11T01:24:38;19.70;30.80
12060;DHT22;6091;51.432;6.880;2024-01-11T01:27:06;19.60;30.10
12060;DHT22;6091;51.432;6.880;2024-01-11T01:29:33;19.60;30.10
12060;DHT22;6091;51.432;6.880;2024-01-11T01:32:01;19.60;30.10
12060;DHT22;6091;51.432;6.880;2024-01-11T01:34:28;19.60;30.20
12060;DHT22;6091;51.432;6.880;2024-01-11T01:36:55;19.60;30.20
12060;DHT22;6091;51.432;6.880;2024-01-11T01:39:22;19.60;30.20
12060;DHT22;6091;51.432;6.880;2024-01-11T01:41:49;19.60;30.20
12060;DHT22;6091;51.432;6.880;2024-01-11T01:44:16;19.50;30.10
12060;DHT22;6091;51.432;6.880;2024-01-11T01:46:43;19.60;30.20
12060;DHT22;6091;51.432;6.880;2024-01-11T01:49:11;19.50;30.10
12060;DHT22;6091;51.432;6.880;2024-01-11T01:51:39;19.50;30.20
12060;DHT22;6091;51.432;6.880;2024-01-11T01:54:07;19.50;30.20
12060;DHT22;6091;51.432;6.880;2024-01-11T01:56:34;19.50;30.20
12060;DHT22;6091;51.432;6.880;2024-01-11T01:59:03;19.50;30.10
12060;DHT22;6091;51.432;6.880;2024-01-11T02:01:32;19.50;30.20
12060;DHT22;6091;51.432;6.880;2024-01-11T02:04:02;19.50;30.20
12060;DHT22;6091;51.432;6.880;2024-01-11T02:06:30;19.50;30.20
12060;DHT22;6091;51.432;6.880;2024-01-11T02:09:01;19.40;30.20
12060;DHT22;6091;51.432;6.880;2024-01-11T02:11:30;19.40;30.20
12060;DHT22;6091;51.432;6.880;2024-01-11T02:13:57;19.40;30.20
12060;DHT22;6091;51.432;6.880;2024-01-11T02:16:25;19.40;30.20
12060;DHT22;6091;51.432;6.880;2024-01-11T02:18:53;19.40;30.20
12060;DHT22;6091;51.432;6.880;2024-01-11T02:21:22;19.40;30.30
12060;DHT22;6091;51.432;6.880;2024-01-11T02:24:04;19.40;30.30
12060;DHT22;6091;51.432;6.880;2024-01-11T02:26:32;19.30;30.30
12060;DHT22;6091;51.432;6.880;2024-01-11T02:29:00;19.30;30.20
12060;DHT22;6091;51.432;6.880;2024-01-11T02:31:28;19.30;30.20
12060;DHT22;6091;51.432;6.880;2024-01-11T02:33:56;19.30;30.20
12060;DHT22;6091;51.432;6.880;2024-01-11T02:36:23;19.30;30.20
12060;DHT22;6091;51.432;6.880;2024-01-11T02:38:53;19.30;30.20
12060;DHT22;6091;51.432;6.880;2024-01-11T02:41:20;19.30;30.30
12060;DHT22;6091;51.432;6.880;2024-01-11T02:43:49;19.30;30.30
12060;DHT22;6091;51.432;6.880;2024-01-11T02:46:17;19.30;30.30
12060;DHT22;6091;51.432;6.880;2024-01-11T02:48:44;19.20;30.20
12060;DHT22;6091;51.432;6.880;2024-01-11T02:51:11;19.20;30.30
12060;DHT22;6091;51.432;6.880;2024-01-11T02:53:38;19.20;30.30
12060;DHT22;6091;51.432;6.880;2024-01-11T02:56:06;19.20;30.30
12060;DHT22;6091;51.432;6.880;2024-01-11T02:58:35;19.20;30.30
12060;DHT22;6091;51.432;6.880;2024-01-11T03:01:02;19.20;30.30
12060;DHT22;6091;51.432;6.880;2024-01-11T03:03:30;19.20;30.40
12060;DHT22;6091;51.432;6.880;2024-01-11T03:05:57;19.20;30.30
12060;DHT22;6091;51.432;6.880;2024-01-11T03:08:25;19.20;30.40
12060;DHT22;6091;51.432;6.880;2024-01-11T03:10:53;19.20;30.30
12060;DHT22;6091;51.432;6.880;2024-01-11T03:13:22;19.20;30.40
12060;DHT22;6091;51.432;6.880;2024-01-11T03:15:50;19.20;30.40
12060;DHT22;6091;51.432;6.880;2024-01-11T03:18:17;19.10;30.30
12060;DHT22;6091;51.432;6.880;2024-01-11T03:20:44;19.10;30.40
12060;DHT22;6091;51.432;6.880;2024-01-11T03:23:11;19.10;30.40
12060;DHT22;6091;51.432;6.880;2024-01-11T03:25:38;19.10;30.40
12060;DHT22;6091;51.432;6.880;2024-01-11T03:28:05;19.10;30.50
12060;DHT22;6091;51.432;6.880;2024-01-11T03:30:32;19.10;30.50
12060;DHT22;6091;51.432;6.880;2024-01-11T03:32:59;19.10;30.50
12060;DHT22;6091;51.432;6.880;2024-01-11T03:35:27;19.10;30.80
12060;DHT22;6091;51.432;6.880;2024-01-11T03:37:54;19.10;30.60
12060;DHT22;6091;51.432;6.880;2024-01-11T03:40:21;19.10;30.60
12060;DHT22;6091;51.432;6.880;2024-01-11T03:42:48;19.00;30.50
12060;DHT22;6091;51.432;6.880;2024-01-11T03:45:18;19.00;30.50
12060;DHT22;6091;51.432;6.880;2024-01-11T03:47:49;19.00;30.60
12060;DHT22;6091;51.432;6.880;2024-01-11T03:50:16;19.00;30.60
12060;DHT22;6091;51.432;6.880;2024-01-11T03:52:43;19.00;30.60
12060;DHT22;6091;51.432;6.880;2024-01-11T03:55:10;19.00;30.70
12060;DHT22;6091;51.432;6.880;2024-01-11T03:57:37;19.20;30.80
12060;DHT22;6091;51.432;6.880;2024-01-11T04:00:06;19.00;30.60
12060;DHT22;6091;51.432;6.880;2024-01-11T04:02:37;19.00;30.60
12060;DHT22;6091;51.432;6.880;2024-01-11T04:05:04;19.00;31.30
12060;DHT22;6091;51.432;6.880;2024-01-11T04:07:32;19.00;30.70
12060;DHT22;6091;51.432;6.880;2024-01-11T04:09:59;19.00;30.70
12060;DHT22;6091;51.432;6.880;2024-01-11T04:12:27;19.00;30.70
12060;DHT22;6091;51.432;6.880;2024-01-11T04:14:54;18.40;30.20
12060;DHT22;6091;51.432;6.880;2024-01-11T04:17:21;18.90;30.60
12060;DHT22;6091;51.432;6.880;2024-01-11T04:19:48;18.90;30.70
12060;DHT22;6091;51.432;6.880;2024-01-11T04:22:15;18.90;30.70
12060;DHT22;6091;51.432;6.880;2024-01-11T04:24:43;18.90;30.70
12060;DHT22;6091;51.432;6.880;2024-01-11T04:27:10;18.90;30.70
12060;DHT22;6091;51.432;6.880;2024-01-11T04:29:37;18.90;30.70
12060;DHT22;6091;51.432;6.880;2024-01-11T04:32:05;18.90;30.70
12060;DHT22;6091;51.432;6.880;2024-01-11T04:34:32;18.90;30.70
12060;DHT22;6091;51.432;6.880;2024-01-11T04:36:59;18.80;30.70
12060;DHT22;6091;51.432;6.880;2024-01-11T04:39:26;18.80;30.70
12060;DHT22;6091;51.432;6.880;2024-01-11T04:41:53;18.80;30.70
12060;DHT22;6091;51.432;6.880;2024-01-11T04:44:21;18.80;30.70
12060;DHT22;6091;51.432;6.880;2024-01-11T04:46:49;18.80;30.70
12060;DHT22;6091;51.432;6.880;2024-01-11T04:49:18;18.80;30.70
12060;DHT22;6091;51.432;6.880;2024-01-11T04:51:46;18.70;30.60
12060;DHT22;6091;51.432;6.880;2024-01-11T04:54:13;18.80;30.70
12060;DHT22;6091;51.432;6.880;2024-01-11T04:56:40;18.70;30.60
12060;DHT22;6091;51.432;6.880;2024-01-11T04:59:07;18.80;30.80
12060;DHT22;6091;51.432;6.880;2024-01-11T05:01:35;18.70;30.70
12060;DHT22;6091;51.432;6.880;2024-01-11T05:04:03;18.80;30.80
12060;DHT22;6091;51.432;6.880;2024-01-11T05:06:36;18.70;30.80
12060;DHT22;6091;51.432;6.880;2024-01-11T05:09:04;18.80;30.70
12060;DHT22;6091;51.432;6.880;2024-01-11T05:11:31;18.70;30.70
12060;DHT22;6091;51.432;6.880;2024-01-11T05:13:59;18.70;30.70
12060;DHT22;6091;51.432;6.880;2024-01-11T05:16:29;18.70;30.70
12060;DHT22;6091;51.432;6.880;2024-01-11T05:19:02;18.70;30.90
12060;DHT22;6091;51.432;6.880;2024-01-11T05:21:29;18.70;30.80
12060;DHT22;6091;51.432;6.880;2024-01-11T05:23:56;18.70;30.80
12060;DHT22;6091;51.432;6.880;2024-01-11T05:26:23;18.70;30.80
12060;DHT22;6091;51.432;6.880;2024-01-11T05:28:50;18.60;30.70
12060;DHT22;6091;51.432;6.880;2024-01-11T05:31:17;18.60;30.70
12060;DHT22;6091;51.432;6.880;2024-01-11T05:33:45;18.60;30.80
12060;DHT22;6091;51.432;6.880;2024-01-11T05:36:14;18.60;30.80
12060;DHT22;6091;51.432;6.880;2024-01-11T05:38:41;18.60;30.80
12060;DHT22;6091;51.432;6.880;2024-01-11T05:41:08;18.60;30.80
12060;DHT22;6091;51.432;6.880;2024-01-11T05:43:37;18.60;30.80
12060;DHT22;6091;51.432;6.880;2024-01-11T05:46:07;18.60;30.90
12060;DHT22;6091;51.432;6.880;2024-01-11T05:48:34;18.60;30.90
12060;DHT22;6091;51.432;6.880;2024-01-11T05:51:02;18.60;30.90
12060;DHT22;6091;51.432;6.880;2024-01-11T05:53:29;18.50;30.80
12060;DHT22;6091;51.432;6.880;2024-01-11T05:55:57;18.60;30.90
12060;DHT22;6091;51.432;6.880;2024-01-11T05:58:24;18.50;30.90
12060;DHT22;6091;51.432;6.880;2024-01-11T06:00:52;18.50;30.90
12060;DHT22;6091;51.432;6.880;2024-01-11T06:03:19;18.50;30.90
12060;DHT22;6091;51.432;6.880;2024-01-11T06:05:48;18.50;30.90
12060;DHT22;6091;51.432;6.880;2024-01-11T06:08:15;18.50;31.00
12060;DHT22;6091;51.432;6.880;2024-01-11T06:10:43;18.50;31.20
12060;DHT22;6091;51.432;6.880;2024-01-11T06:13:11;18.50;31.60
12060;DHT22;6091;51.432;6.880;2024-01-11T06:15:38;18.60;32.00
12060;DHT22;6091;51.432;6.880;2024-01-11T06:18:05;18.70;32.40
12060;DHT22;6091;51.432;6.880;2024-01-11T06:20:33;18.90;32.70
12060;DHT22;6091;51.432;6.880;2024-01-11T06:23:00;19.10;32.90
12060;DHT22;6091;51.432;6.880;2024-01-11T06:25:27;19.40;32.90
12060;DHT22;6091;51.432;6.880;2024-01-11T06:27:54;19.70;32.90
12060;DHT22;6091;51.432;6.880;2024-01-11T06:30:22;20.00;32.80
12060;DHT22;6091;51.432;6.880;2024-01-11T06:32:51;20.30;32.70
12060;DHT22;6091;51.432;6.880;2024-01-11T06:35:18;20.70;32.60
12060;DHT22;6091;51.432;6.880;2024-01-11T06:37:46;20.90;32.40
12060;DHT22;6091;51.432;6.880;2024-01-11T06:40:13;21.20;32.30
12060;DHT22;6091;51.432;6.880;2024-01-11T06:42:40;21.50;32.10
12060;DHT22;6091;51.432;6.880;2024-01-11T06:45:08;21.70;31.90
12060;DHT22;6091;51.432;6.880;2024-01-11T06:47:35;22.00;31.80
12060;DHT22;6091;51.432;6.880;2024-01-11T06:50:03;22.10;31.50
12060;DHT22;6091;51.432;6.880;2024-01-11T06:52:31;22.40;31.50
12060;DHT22;6091;51.432;6.880;2024-01-11T06:54:58;22.60;31.30
12060;DHT22;6091;51.432;6.880;2024-01-11T06:57:25;22.70;31.20
12060;DHT22;6091;51.432;6.880;2024-01-11T06:59:52;22.90;31.10
12060;DHT22;6091;51.432;6.880;2024-01-11T07:02:20;23.00;30.90
12060;DHT22;6091;51.432;6.880;2024-01-11T07:04:47;23.10;30.70
12060;DHT22;6091;51.432;6.880;2024-01-11T07:07:14;23.30;30.70
12060;DHT22;6091;51.432;6.880;2024-01-11T07:09:41;23.40;30.70
12060;DHT22;6091;51.432;6.880;2024-01-11T07:12:09;23.50;30.60
12060;DHT22;6091;51.432;6.880;2024-01-11T07:14:36;23.60;30.60
12060;DHT22;6091;51.432;6.880;2024-01-11T07:17:03;23.70;30.50
12060;DHT22;6091;51.432;6.880;2024-01-11T07:19:31;23.70;30.40
12060;DHT22;6091;51.432;6.880;2024-01-11T07:21:58;23.80;30.20
12060;DHT22;6091;51.432;6.880;2024-01-11T07:24:25;23.80;30.40
12060;DHT22;6091;51.432;6.880;2024-01-11T07:26:53;23.90;30.30
12060;DHT22;6091;51.432;6.880;2024-01-11T07:29:20;24.10;30.30
12060;DHT22;6091;51.432;6.880;2024-01-11T07:31:48;24.10;30.20
12060;DHT22;6091;51.432;6.880;2024-01-11T07:34:15;24.20;30.20
12060;DHT22;6091;51.432;6.880;2024-01-11T07:36:42;24.30;30.10
12060;DHT22;6091;51.432;6.880;2024-01-11T07:39:09;24.40;30.10
12060;DHT22;6091;51.432;6.880;2024-01-11T07:41:36;24.40;30.00
12060;DHT22;6091;51.432;6.880;2024-01-11T07:44:04;24.50;30.00
12060;DHT22;6091;51.432;6.880;2024-01-11T07:46:31;24.50;29.90
12060;DHT22;6091;51.432;6.880;2024-01-11T07:49:08;24.60;29.90
12060;DHT22;6091;51.432;6.880;2024-01-11T07:51:35;24.60;29.90
12060;DHT22;6091;51.432;6.880;2024-01-11T07:54:02;24.70;29.90
12060;DHT22;6091;51.432;6.880;2024-01-11T07:56:30;24.70;29.80
12060;DHT22;6091;51.432;6.880;2024-01-11T07:58:57;24.70;29.80
12060;DHT22;6091;51.432;6.880;2024-01-11T08:01:24;24.70;29.70
12060;DHT22;6091;51.432;6.880;2024-01-11T08:03:51;24.80;29.70
12060;DHT22;6091;51.432;6.880;2024-01-11T08:06:19;24.90;29.70
12060;DHT22;6091;51.432;6.880;2024-01-11T08:08:47;24.80;29.60
12060;DHT22;6091;51.432;6.880;2024-01-11T08:11:20;24.90;29.70
12060;DHT22;6091;51.432;6.880;2024-01-11T08:13:47;24.90;29.60
12060;DHT22;6091;51.432;6.880;2024-01-11T08:16:17;25.00;29.70
12060;DHT22;6091;51.432;6.880;2024-01-11T08:18:46;25.00;29.50
12060;DHT22;6091;51.432;6.880;2024-01-11T08:21:15;25.00;29.50
12060;DHT22;6091;51.432;6.880;2024-01-11T08:23:42;25.00;29.40
12060;DHT22;6091;51.432;6.880;2024-01-11T08:26:13;25.10;29.20
12060;DHT22;6091;51.432;6.880;2024-01-11T08:28:48;25.10;29.10
12060;DHT22;6091;51.432;6.880;2024-01-11T08:31:15;25.10;28.90
12060;DHT22;6091;51.432;6.880;2024-01-11T08:33:42;25.00;29.10
12060;DHT22;6091;51.432;6.880;2024-01-11T08:36:10;25.10;29.20
12060;DHT22;6091;51.432;6.880;2024-01-11T08:38:39;25.20;29.20
12060;DHT22;6091;51.432;6.880;2024-01-11T08:41:07;25.20;29.20
12060;DHT22;6091;51.432;6.880;2024-01-11T08:43:36;25.30;29.20
12060;DHT22;6091;51.432;6.880;2024-01-11T08:46:03;25.30;29.20
12060;DHT22;6091;51.432;6.880;2024-01-11T08:48:30;25.40;29.10
12060;DHT22;6091;51.432;6.880;2024-01-11T08:50:59;25.40;29.10
12060;DHT22;6091;51.432;6.880;2024-01-11T08:53:26;25.40;29.10
12060;DHT22;6091;51.432;6.880;2024-01-11T08:55:53;25.40;29.10
12060;DHT22;6091;51.432;6.880;2024-01-11T08:58:20;25.40;29.00
12060;DHT22;6091;51.432;6.880;2024-01-11T09:00:47;25.40;29.00
12060;DHT22;6091;51.432;6.880;2024-01-11T09:03:16;25.50;29.00
12060;DHT22;6091;51.432;6.880;2024-01-11T09:05:44;25.40;29.00
12060;DHT22;6091;51.432;6.880;2024-01-11T09:08:12;25.40;29.00
12060;DHT22;6091;51.432;6.880;2024-01-11T09:10:39;25.50;29.10
12060;DHT22;6091;51.432;6.880;2024-01-11T09:13:09;25.50;29.00
12060;DHT22;6091;51.432;6.880;2024-01-11T09:15:39;25.40;29.00
12060;DHT22;6091;51.432;6.880;2024-01-11T09:18:06;25.50;29.00
12060;DHT22;6091;51.432;6.880;2024-01-11T09:20:35;25.50;29.00
12060;DHT22;6091;51.432;6.880;2024-01-11T09:23:02;25.50;29.00
12060;DHT22;6091;51.432;6.880;2024-01-11T09:25:30;25.50;29.00
12060;DHT22;6091;51.432;6.880;2024-01-11T09:28:01;25.50;29.00
12060;DHT22;6091;51.432;6.880;2024-01-11T09:30:30;25.60;29.00
12060;DHT22;6091;51.432;6.880;2024-01-11T09:32:57;25.60;29.00
12060;DHT22;6091;51.432;6.880;2024-01-11T09:35:25;25.60;29.00
12060;DHT22;6091;51.432;6.880;2024-01-11T09:37:52;25.60;28.90
12060;DHT22;6091;51.432;6.880;2024-01-11T09:40:19;25.60;28.90
12060;DHT22;6091;51.432;6.880;2024-01-11T09:42:47;25.60;29.00
12060;DHT22;6091;51.432;6.880;2024-01-11T09:45:16;25.60;28.90
12060;DHT22;6091;51.432;6.880;2024-01-11T09:47:44;25.70;29.00
12060;DHT22;6091;51.432;6.880;2024-01-11T09:50:17;25.60;28.90
12060;DHT22;6091;51.432;6.880;2024-01-11T09:52:49;25.70;28.80
12060;DHT22;6091;51.432;6.880;2024-01-11T09:55:18;25.70;28.90
12060;DHT22;6091;51.432;6.880;2024-01-11T09:57:47;25.70;28.90
12060;DHT22;6091;51.432;6.880;2024-01-11T10:00:21;25.80;28.90
12060;DHT22;6091;51.432;6.880;2024-01-11T10:02:50;25.80;28.90
12060;DHT22;6091;51.432;6.880;2024-01-11T10:05:19;25.80;28.90
12060;DHT22;6091;51.432;6.880;2024-01-11T10:07:46;25.90;29.00
12060;DHT22;6091;51.432;6.880;2024-01-11T10:10:13;25.90;29.00
12060;DHT22;6091;51.432;6.880;2024-01-11T10:12:47;25.90;28.90
12060;DHT22;6091;51.432;6.880;2024-01-11T10:15:15;26.00;28.90
12060;DHT22;6091;51.432;6.880;2024-01-11T10:17:43;26.00;28.90
12060;DHT22;6091;51.432;6.880;2024-01-11T10:20:15;26.10;28.90
12060;DHT22;6091;51.432;6.880;2024-01-11T10:22:46;26.10;28.90
12060;DHT22;6091;51.432;6.880;2024-01-11T10:25:15;26.10;28.90
12060;DHT22;6091;51.432;6.880;2024-01-11T10:27:44;26.10;28.80
12060;DHT22;6091;51.432;6.880;2024-01-11T10:30:16;26.20;28.80
12060;DHT22;6091;51.432;6.880;2024-01-11T10:32:47;26.20;28.80
12060;DHT22;6091;51.432;6.880;2024-01-11T10:35:15;26.30;28.80
12060;DHT22;6091;51.432;6.880;2024-01-11T10:37:45;26.30;28.70
12060;DHT22;6091;51.432;6.880;2024-01-11T10:40:16;26.30;28.70
12060;DHT22;6091;51.432;6.880;2024-01-11T10:42:51;26.30;28.50
12060;DHT22;6091;51.432;6.880;2024-01-11T10:45:20;26.40;28.70
12060;DHT22;6091;51.432;6.880;2024-01-11T10:47:54;26.40;28.70
12060;DHT22;6091;51.432;6.880;2024-01-11T10:50:32;26.50;28.60
12060;DHT22;6091;51.432;6.880;2024-01-11T10:53:04;26.60;28.60
12060;DHT22;6091;51.432;6.880;2024-01-11T10:55:36;26.70;28.50
12060;DHT22;6091;51.432;6.880;2024-01-11T10:58:06;26.70;28.60
12060;DHT22;6091;51.432;6.880;2024-01-11T11:00:35;26.70;28.50
12060;DHT22;6091;51.432;6.880;2024-01-11T11:03:05;26.80;28.50
12060;DHT22;6091;51.432;6.880;2024-01-11T11:05:35;26.90;28.40
12060;DHT22;6091;51.432;6.880;2024-01-11T11:08:07;27.00;28.50
12060;DHT22;6091;51.432;6.880;2024-01-11T11:10:36;27.00;28.30
12060;DHT22;6091;51.432;6.880;2024-01-11T11:13:06;27.10;28.40
12060;DHT22;6091;51.432;6.880;2024-01-11T11:15:35;27.10;28.30
12060;DHT22;6091;51.432;6.880;2024-01-11T11:18:05;27.20;28.30
12060;DHT22;6091;51.432;6.880;2024-01-11T11:20:34;27.30;28.30
12060;DHT22;6091;51.432;6.880;2024-01-11T11:23:06;27.30;28.00
12060;DHT22;6091;51.432;6.880;2024-01-11T11:25:34;27.30;28.10
12060;DHT22;6091;51.432;6.880;2024-01-11T11:28:01;27.30;28.00
12060;DHT22;6091;51.432;6.880;2024-01-11T11:30:33;27.30;28.20
12060;DHT22;6091;51.432;6.880;2024-01-11T11:35:48;27.50;28.00
12060;DHT22;6091;51.432;6.880;2024-01-11T11:38:23;27.50;28.10
12060;DHT22;6091;51.432;6.880;2024-01-11T11:40:53;27.70;28.00
12060;DHT22;6091;51.432;6.880;2024-01-11T11:43:23;27.70;28.10
12060;DHT22;6091;51.432;6.880;2024-01-11T11:45:53;27.70;28.00
12060;DHT22;6091;51.432;6.880;2024-01-11T11:51:17;27.80;27.90
12060;DHT22;6091;51.432;6.880;2024-01-11T11:53:48;27.90;27.80
12060;DHT22;6091;51.432;6.880;2024-01-11T11:56:23;28.00;28.00
12060;DHT22;6091;51.432;6.880;2024-01-11T11:58:52;28.10;27.90
12060;DHT22;6091;51.432;6.880;2024-01-11T12:01:21;28.10;28.00
12060;DHT22;6091;51.432;6.880;2024-01-11T12:03:48;28.10;27.90
12060;DHT22;6091;51.432;6.880;2024-01-11T12:06:18;28.20;27.90
12060;DHT22;6091;51.432;6.880;2024-01-11T12:08:48;28.30;27.90
12060;DHT22;6091;51.432;6.880;2024-01-11T12:11:20;28.30;27.90
12060;DHT22;6091;51.432;6.880;2024-01-11T12:13:50;28.40;27.80
12060;DHT22;6091;51.432;6.880;2024-01-11T12:16:19;28.10;27.50
12060;DHT22;6091;51.432;6.880;2024-01-11T12:18:49;28.30;27.80
12060;DHT22;6091;51.432;6.880;2024-01-11T12:21:17;28.40;27.80
12060;DHT22;6091;51.432;6.880;2024-01-11T12:23:45;28.50;27.80
12060;DHT22;6091;51.432;6.880;2024-01-11T12:26:13;28.50;27.70
12060;DHT22;6091;51.432;6.880;2024-01-11T12:28:42;28.60;27.70
12060;DHT22;6091;51.432;6.880;2024-01-11T12:31:13;28.60;27.70
12060;DHT22;6091;51.432;6.880;2024-01-11T12:33:41;28.60;27.70
12060;DHT22;6091;51.432;6.880;2024-01-11T12:36:11;28.70;27.70
12060;DHT22;6091;51.432;6.880;2024-01-11T12:38:46;28.70;28.20
12060;DHT22;6091;51.432;6.880;2024-01-11T12:41:22;28.70;27.60
12060;DHT22;6091;51.432;6.880;2024-01-11T12:43:51;28.70;27.70
12060;DHT22;6091;51.432;6.880;2024-01-11T12:46:19;28.90;27.70
12060;DHT22;6091;51.432;6.880;2024-01-11T12:48:47;28.70;27.50
12060;DHT22;6091;51.432;6.880;2024-01-11T12:51:17;28.70;27.40
12060;DHT22;6091;51.432;6.880;2024-01-11T12:53:48;28.70;27.40
12060;DHT22;6091;51.432;6.880;2024-01-11T12:56:18;28.60;27.40
12060;DHT22;6091;51.432;6.880;2024-01-11T12:58:49;28.40;27.20
12060;DHT22;6091;51.432;6.880;2024-01-11T13:01:18;28.30;27.30
12060;DHT22;6091;51.432;6.880;2024-01-11T13:03:46;28.30;27.20
12060;DHT22;6091;51.432;6.880;2024-01-11T13:06:15;28.20;27.10
12060;DHT22;6091;51.432;6.880;2024-01-11T13:08:45;28.20;27.10
12060;DHT22;6091;51.432;6.880;2024-01-11T13:11:13;28.00;27.00
12060;DHT22;6091;51.432;6.880;2024-01-11T13:13:43;28.00;27.10
12060;DHT22;6091;51.432;6.880;2024-01-11T13:16:14;27.90;27.20
12060;DHT22;6091;51.432;6.880;2024-01-11T13:18:42;27.90;27.30
12060;DHT22;6091;51.432;6.880;2024-01-11T13:21:10;27.80;27.30
12060;DHT22;6091;51.432;6.880;2024-01-11T13:23:39;27.70;27.40
12060;DHT22;6091;51.432;6.880;2024-01-11T13:26:08;27.70;27.50
12060;DHT22;6091;51.432;6.880;2024-01-11T13:28:36;27.70;27.50
12060;DHT22;6091;51.432;6.880;2024-01-11T13:31:03;27.70;27.60
12060;DHT22;6091;51.432;6.880;2024-01-11T13:33:30;27.70;27.60
12060;DHT22;6091;51.432;6.880;2024-01-11T13:35:58;27.80;27.60
12060;DHT22;6091;51.432;6.880;2024-01-11T13:38:25;27.80;27.60
12060;DHT22;6091;51.432;6.880;2024-01-11T13:40:53;27.80;27.60
12060;DHT22;6091;51.432;6.880;2024-01-11T13:43:20;27.90;27.60
12060;DHT22;6091;51.432;6.880;2024-01-11T13:45:48;27.90;27.60
12060;DHT22;6091;51.432;6.880;2024-01-11T13:48:16;27.90;27.60
12060;DHT22;6091;51.432;6.880;2024-01-11T13:50:43;27.90;27.50
12060;DHT22;6091;51.432;6.880;2024-01-11T13:53:11;27.90;27.50
12060;DHT22;6091;51.432;6.880;2024-01-11T13:55:38;27.90;27.50
12060;DHT22;6091;51.432;6.880;2024-01-11T13:58:07;27.90;27.50
12060;DHT22;6091;51.432;6.880;2024-01-11T14:00:35;27.90;27.50
12060;DHT22;6091;51.432;6.880;2024-01-11T14:03:06;27.90;27.50
12060;DHT22;6091;51.432;6.880;2024-01-11T14:05:36;27.90;27.50
12060;DHT22;6091;51.432;6.880;2024-01-11T14:08:04;27.90;27.50
12060;DHT22;6091;51.432;6.880;2024-01-11T14:10:34;27.90;27.50
12060;DHT22;6091;51.432;6.880;2024-01-11T14:13:01;27.80;27.50
12060;DHT22;6091;51.432;6.880;2024-01-11T14:15:29;27.90;27.50
12060;DHT22;6091;51.432;6.880;2024-01-11T14:17:58;27.80;27.50
12060;DHT22;6091;51.432;6.880;2024-01-11T14:20:26;27.80;27.50
12060;DHT22;6091;51.432;6.880;2024-01-11T14:22:57;27.80;27.50
12060;DHT22;6091;51.432;6.880;2024-01-11T14:25:26;27.80;27.50
12060;DHT22;6091;51.432;6.880;2024-01-11T14:27:53;27.80;27.50
12060;DHT22;6091;51.432;6.880;2024-01-11T14:30:22;27.70;27.50
12060;DHT22;6091;51.432;6.880;2024-01-11T14:32:50;27.70;27.50
12060;DHT22;6091;51.432;6.880;2024-01-11T14:35:18;27.70;27.50
12060;DHT22;6091;51.432;6.880;2024-01-11T14:37:46;27.60;27.50
12060;DHT22;6091;51.432;6.880;2024-01-11T14:40:14;27.50;27.40
12060;DHT22;6091;51.432;6.880;2024-01-11T14:42:42;27.30;27.40
12060;DHT22;6091;51.432;6.880;2024-01-11T14:45:10;27.50;27.50
12060;DHT22;6091;51.432;6.880;2024-01-11T14:47:38;27.40;27.50
12060;DHT22;6091;51.432;6.880;2024-01-11T14:50:07;27.40;27.70
12060;DHT22;6091;51.432;6.880;2024-01-11T14:52:37;27.30;27.60
12060;DHT22;6091;51.432;6.880;2024-01-11T14:55:08;27.30;27.60
12060;DHT22;6091;51.432;6.880;2024-01-11T14:57:39;27.30;27.60
12060;DHT22;6091;51.432;6.880;2024-01-11T15:00:08;27.30;27.60
12060;DHT22;6091;51.432;6.880;2024-01-11T15:02:37;27.20;27.50
12060;DHT22;6091;51.432;6.880;2024-01-11T15:05:05;27.20;27.50
12060;DHT22;6091;51.432;6.880;2024-01-11T15:07:34;27.10;27.50
12060;DHT22;6091;51.432;6.880;2024-01-11T15:10:02;27.10;27.50
12060;DHT22;6091;51.432;6.880;2024-01-11T15:12:30;27.00;27.50
12060;DHT22;6091;51.432;6.880;2024-01-11T15:14:57;26.90;27.50
12060;DHT22;6091;51.432;6.880;2024-01-11T15:17:25;27.00;27.60
12060;DHT22;6091;51.432;6.880;2024-01-11T15:19:53;26.90;27.60
12060;DHT22;6091;51.432;6.880;2024-01-11T15:22:20;26.90;27.60
12060;DHT22;6091;51.432;6.880;2024-01-11T15:24:48;26.90;27.60
12060;DHT22;6091;51.432;6.880;2024-01-11T15:27:20;26.80;27.60
12060;DHT22;6091;51.432;6.880;2024-01-11T15:29:49;26.70;27.60
12060;DHT22;6091;51.432;6.880;2024-01-11T15:32:20;26.70;27.60
12060;DHT22;6091;51.432;6.880;2024-01-11T15:34:49;26.70;27.70
12060;DHT22;6091;51.432;6.880;2024-01-11T15:37:20;26.60;27.60
12060;DHT22;6091;51.432;6.880;2024-01-11T15:39:50;26.60;27.60
12060;DHT22;6091;51.432;6.880;2024-01-11T15:42:17;26.50;27.90
12060;DHT22;6091;51.432;6.880;2024-01-11T15:44:45;26.40;27.90
12060;DHT22;6091;51.432;6.880;2024-01-11T15:47:13;26.50;27.90
12060;DHT22;6091;51.432;6.880;2024-01-11T15:49:41;26.50;27.90
12060;DHT22;6091;51.432;6.880;2024-01-11T15:52:08;26.50;27.90
12060;DHT22;6091;51.432;6.880;2024-01-11T15:54:37;26.50;27.90
12060;DHT22;6091;51.432;6.880;2024-01-11T15:57:05;26.50;27.90